Skip Navigation LinksHome page > Weather > Current weather Skip Navigation Links

Current Weather

Indira Gandhi Intl Apt, New Delhi, India

For information only: do not use for flight planning or navigation.
Latest weather
Observation time Tuesday, June 25, 2019 11:30 PM IST
Local time Wednesday, June 26, 2019 12:03 AM IST
Flight conditions Instrument Meteorological Conditions
Winds
Wind direction South (180°)
Wind speed 5 mph
Visibility 2.5 mi.
Present weather haze
Sky condition
Ceiling unlimited
Cloud layer few clouds 4,000 ft.
Cloud layer scattered clouds 10,000 ft.
Temperature 93°F
Dewpoint 72°F
Altimeter 29.62 in.Hg
Derived measurements
Relative humidity 50%
Heat index 101°F
Density altitude 3624 ft.
Remarks
No significant changes expected in the next two hours.
METAR VIDP 251800Z 18004KT 4000 HZ FEW040 SCT100 34/22 Q1003 NOSIG

Settings

Location code

InnerDrive.Weather 4.0.6770.0 Release CLR 4.0.30319.42000
Copyright ©2018 Inner Drive Technology. All rights reserved. Portions Copyright ©1986-2018 David Braverman.

Find weather

Site navigation


Skip Navigation Links

Place info

Page info

PayPal - The safer, easier way to pay online!

Return home.

Copyright ©2019 Inner Drive Technology. Purveyors of fine, hand-crafted computer software. Page printed 2019-06-25T18:33:01 UTC.